createdAt,value
2022-11-15T00:00:00.870Z,0.00
2022-11-15T00:01:04.573Z,0.00
2022-11-15T00:02:08.166Z,0.00
2022-11-15T00:03:11.612Z,0.43
2022-11-15T00:04:14.932Z,0.00
2022-11-15T00:05:18.186Z,0.00
2022-11-15T00:06:21.266Z,0.00
2022-11-15T00:07:53.424Z,0.00
2022-11-15T00:08:29.296Z,0.00
2022-11-15T00:09:32.544Z,0.00
2022-11-15T00:10:36.031Z,0.00
2022-11-15T00:11:39.259Z,0.00
2022-11-15T00:12:42.926Z,0.00
2022-11-15T00:13:46.555Z,0.00
2022-11-15T00:14:50.004Z,0.00
2022-11-15T00:15:53.418Z,0.00
2022-11-15T00:16:57.216Z,0.00
2022-11-15T00:18:00.698Z,0.00
2022-11-15T00:19:04.240Z,0.00
2022-11-15T00:20:07.629Z,0.43
2022-11-15T00:21:10.965Z,0.00
2022-11-15T00:22:14.665Z,0.57
2022-11-15T00:23:18.040Z,0.00
2022-11-15T00:24:21.423Z,0.00
2022-11-15T00:25:24.679Z,0.00
2022-11-15T00:26:27.753Z,0.00
2022-11-15T00:27:31.185Z,0.00
2022-11-15T00:28:34.839Z,0.00
2022-11-15T00:29:38.426Z,0.00
2022-11-15T00:30:41.747Z,0.00
2022-11-15T00:31:45.230Z,0.00
2022-11-15T00:32:48.934Z,0.00
2022-11-15T00:33:52.522Z,0.00
2022-11-15T00:34:55.810Z,0.00
2022-11-15T00:35:59.069Z,0.00
2022-11-15T00:37:02.342Z,0.00
2022-11-15T00:38:05.451Z,0.00
2022-11-15T00:39:08.492Z,0.29
2022-11-15T00:40:11.781Z,0.00
2022-11-15T00:41:14.749Z,0.00
2022-11-15T00:42:18.085Z,0.00
2022-11-15T00:43:21.227Z,0.00
2022-11-15T00:44:24.468Z,0.00
2022-11-15T00:45:27.945Z,0.00
2022-11-15T00:46:31.129Z,0.00
2022-11-15T00:47:34.461Z,0.00
2022-11-15T00:48:38.014Z,0.00
2022-11-15T00:49:41.131Z,0.00
2022-11-15T00:50:44.636Z,0.00
2022-11-15T00:51:47.899Z,0.14
2022-11-15T00:52:51.327Z,0.43
2022-11-15T00:53:54.818Z,0.00
2022-11-15T00:54:58.194Z,0.00
2022-11-15T00:56:01.797Z,0.00
2022-11-15T00:57:05.386Z,0.00
2022-11-15T00:58:08.778Z,0.50
2022-11-15T00:59:12.266Z,0.57
2022-11-15T01:00:15.547Z,0.00
2022-11-15T01:01:18.772Z,0.00
2022-11-15T01:02:22.014Z,0.00
2022-11-15T01:03:25.048Z,0.00
2022-11-15T01:04:28.481Z,0.00
2022-11-15T08:54:35.637Z,2.00
2022-11-15T08:55:38.705Z,0.50
2022-11-15T08:56:41.784Z,1.00
2022-11-15T08:57:44.877Z,1.86
2022-11-15T08:58:48.158Z,2.57
2022-11-15T08:59:51.349Z,1.67
2022-11-15T09:00:54.415Z,1.00
2022-11-15T09:01:57.648Z,1.00
2022-11-15T09:03:00.985Z,1.00
2022-11-15T09:04:04.165Z,0.57
2022-11-15T09:05:07.243Z,0.43
2022-11-15T09:06:10.962Z,1.00
2022-11-15T09:07:14.425Z,1.43
2022-11-15T09:08:46.026Z,1.00
2022-11-15T09:09:21.705Z,0.50
2022-11-15T09:10:24.897Z,0.33
2022-11-15T09:11:28.072Z,1.00
2022-11-15T09:12:31.571Z,1.00
2022-11-15T09:13:34.741Z,1.00
2022-11-15T09:14:38.131Z,1.00
2022-11-15T09:15:41.309Z,1.00
2022-11-15T09:16:44.397Z,1.00
2022-11-15T09:17:47.679Z,0.57
2022-11-15T09:18:50.956Z,1.00
2022-11-15T09:19:54.253Z,1.00
2022-11-15T09:20:57.629Z,1.00
2022-11-15T09:22:00.814Z,1.00
2022-11-15T09:23:04.068Z,1.00
2022-11-15T09:24:07.277Z,1.33
2022-11-15T09:25:11.290Z,2.00
2022-11-15T09:26:14.558Z,2.00
2022-11-15T09:27:17.948Z,2.00
2022-11-15T09:28:21.132Z,1.57
2022-11-15T09:29:24.720Z,1.00
2022-11-15T09:30:27.802Z,1.00
2022-11-15T09:31:30.991Z,1.00
2022-11-15T09:32:38.945Z,1.43
2022-11-15T09:33:38.778Z,2.00
2022-11-15T09:34:41.964Z,1.57
2022-11-15T09:35:45.155Z,1.00
2022-11-15T09:36:48.528Z,1.57
2022-11-15T09:37:56.111Z,1.00
2022-11-15T09:38:56.327Z,0.50
2022-11-15T09:39:59.611Z,0.83
2022-11-15T09:41:03.117Z,1.00
2022-11-15T09:42:06.703Z,1.00
2022-11-15T09:43:09.984Z,1.29
2022-11-15T09:44:13.264Z,1.43
2022-11-15T09:45:16.648Z,1.57
2022-11-15T09:46:20.038Z,1.00
2022-11-15T09:47:23.221Z,1.00
2022-11-15T09:48:26.293Z,1.00
2022-11-15T09:49:29.477Z,1.43
2022-11-15T09:50:32.762Z,1.43
2022-11-15T09:51:35.882Z,1.86
2022-11-15T09:52:39.031Z,1.57
2022-11-15T09:54:24.170Z,1.33
2022-11-15T09:54:54.821Z,1.50
2022-11-15T09:55:50.920Z,0.62
2022-11-15T09:56:54.209Z,0.00
2022-11-15T09:57:57.591Z,0.43
2022-11-15T09:59:00.773Z,1.00
2022-11-15T10:00:30.738Z,0.57
2022-11-15T10:01:08.706Z,0.88
2022-11-15T10:02:12.174Z,1.00
2022-11-15T10:03:15.659Z,1.00
2022-11-15T10:04:18.988Z,1.00
2022-11-15T10:05:21.915Z,1.00
2022-11-15T10:06:25.019Z,1.33
2022-11-15T10:07:28.229Z,1.57
2022-11-15T10:08:31.813Z,1.00
2022-11-15T10:09:35.363Z,1.00
2022-11-15T10:10:38.647Z,0.43
2022-11-15T10:11:41.866Z,1.43
2022-11-15T10:12:45.111Z,1.00
2022-11-15T10:13:48.191Z,1.00
2022-11-15T10:14:54.395Z,1.00
2022-11-15T10:15:55.482Z,1.00
2022-11-15T10:16:58.448Z,1.00
2022-11-15T10:18:01.747Z,1.00
2022-11-15T10:19:04.814Z,1.33
2022-11-15T10:20:07.996Z,1.17
2022-11-15T10:21:11.246Z,1.00
2022-11-15T10:22:14.367Z,1.00
2022-11-15T10:23:17.750Z,1.00
2022-11-15T10:24:20.928Z,0.57
2022-11-15T10:25:24.008Z,0.43
2022-11-15T10:26:27.396Z,1.00
2022-11-15T10:27:30.588Z,1.00
2022-11-15T10:28:34.007Z,1.00
2022-11-15T10:29:37.252Z,1.29
2022-11-15T10:30:40.211Z,1.67
2022-11-15T10:31:43.303Z,1.00
2022-11-15T10:32:46.392Z,1.00
2022-11-15T10:33:49.565Z,1.00
2022-11-15T10:34:52.683Z,1.00
2022-11-15T10:35:55.902Z,1.00
2022-11-15T10:36:59.005Z,1.00
2022-11-15T10:38:02.500Z,1.00
2022-11-15T10:39:05.683Z,1.00
2022-11-15T10:40:08.667Z,1.00
2022-11-15T10:41:11.855Z,1.00
2022-11-15T10:42:17.792Z,0.67
2022-11-15T10:43:19.540Z,0.62
2022-11-15T10:44:23.334Z,1.00
2022-11-15T10:45:26.521Z,1.00
2022-11-15T10:46:46.266Z,1.00
2022-11-15T10:47:38.895Z,1.00
2022-11-15T10:48:38.522Z,0.50
2022-11-15T10:49:41.706Z,0.14
2022-11-15T10:50:44.465Z,0.57
2022-11-15T10:51:47.143Z,0.50
2022-11-15T10:52:50.025Z,0.50
2022-11-15T10:53:52.643Z,1.00
2022-11-15T10:54:55.211Z,1.00
2022-11-15T10:55:58.073Z,1.00
2022-11-15T10:57:00.629Z,1.00
2022-11-15T10:58:03.209Z,0.57
2022-11-15T10:59:05.755Z,0.33
2022-11-15T11:00:08.331Z,1.00
2022-11-15T11:01:11.267Z,1.00
2022-11-15T11:02:14.133Z,1.00
2022-11-15T11:03:17.034Z,1.67
2022-11-15T11:04:19.847Z,2.00
2022-11-15T11:05:22.462Z,2.43
2022-11-15T11:06:25.024Z,1.67
2022-11-15T11:07:27.656Z,1.33
2022-11-15T11:08:30.515Z,2.00
2022-11-15T11:09:33.452Z,2.00
2022-11-15T11:10:51.183Z,2.00
2022-11-15T11:11:40.415Z,1.50
2022-11-15T11:12:43.166Z,1.00
2022-11-15T11:13:46.073Z,1.00
2022-11-15T11:14:49.007Z,1.00
2022-11-15T11:15:51.613Z,1.00
2022-11-15T11:16:54.527Z,1.00
2022-11-15T11:17:57.335Z,1.00
2022-11-15T11:19:00.133Z,1.00
2022-11-15T11:20:02.951Z,0.43
2022-11-15T11:21:05.829Z,1.00
2022-11-15T11:22:09.514Z,1.00
2022-11-15T11:23:12.468Z,0.57
2022-11-15T11:24:15.094Z,0.33
2022-11-15T11:25:17.652Z,0.67
2022-11-15T11:26:20.249Z,0.00
2022-11-15T11:27:22.831Z,0.00
2022-11-15T11:28:25.407Z,0.00
2022-11-15T11:29:27.973Z,0.00
2022-11-15T11:30:30.560Z,0.00
2022-11-15T11:31:33.084Z,0.00
2022-11-15T11:32:35.774Z,0.00
2022-11-15T11:33:38.390Z,0.00
2022-11-15T11:34:41.007Z,0.00
2022-11-15T11:35:43.707Z,0.00
2022-11-15T11:36:46.210Z,0.00
2022-11-15T11:37:48.845Z,0.00
2022-11-15T11:38:51.348Z,0.00
2022-11-15T11:39:54.013Z,0.00
2022-11-15T11:40:56.694Z,0.00
2022-11-15T11:41:59.438Z,0.00
2022-11-15T11:43:02.170Z,0.00
2022-11-15T11:44:04.860Z,0.00
2022-11-15T11:45:07.644Z,0.00
2022-11-15T11:46:10.546Z,0.00
2022-11-15T11:47:13.358Z,0.00
2022-11-15T11:48:16.234Z,0.00
2022-11-15T11:49:19.055Z,0.00
2022-11-15T11:50:21.971Z,0.00
2022-11-15T11:51:24.526Z,0.00
2022-11-15T11:52:27.174Z,0.00
2022-11-15T11:53:29.737Z,0.00
2022-11-15T11:54:32.393Z,0.00
2022-11-15T11:55:34.950Z,0.00
2022-11-15T11:56:37.776Z,0.00
2022-11-15T11:57:40.575Z,0.00
2022-11-15T11:58:43.375Z,0.00
2022-11-15T11:59:46.176Z,0.00
2022-11-15T12:00:49.064Z,0.00
2022-11-15T12:01:51.678Z,0.00
2022-11-15T12:02:54.449Z,0.00
2022-11-15T12:03:57.073Z,0.00
2022-11-15T12:04:59.724Z,0.00
2022-11-15T12:06:02.280Z,0.00
2022-11-15T12:07:04.878Z,0.00
2022-11-15T12:08:07.393Z,0.00
2022-11-15T12:09:09.972Z,0.00
2022-11-15T12:10:12.680Z,0.00
2022-11-15T12:11:15.335Z,0.00
2022-11-15T12:12:17.873Z,0.00
2022-11-15T12:13:20.446Z,0.00
2022-11-15T12:14:23.013Z,0.00
2022-11-15T12:15:25.568Z,0.00
2022-11-15T12:16:28.185Z,0.00
2022-11-15T12:17:30.822Z,0.00
2022-11-15T12:18:33.631Z,0.00
2022-11-15T12:19:36.667Z,0.00
2022-11-15T12:20:39.299Z,0.00
2022-11-15T12:21:41.835Z,0.00
2022-11-15T12:22:44.414Z,0.00
2022-11-15T12:23:46.970Z,0.00
2022-11-15T12:24:49.679Z,0.00
2022-11-15T12:25:52.236Z,0.00
2022-11-15T12:26:54.869Z,0.00
2022-11-15T12:27:57.395Z,0.00
2022-11-15T12:29:07.345Z,0.00
2022-11-15T12:30:03.772Z,0.00
2022-11-15T12:31:06.505Z,0.00
2022-11-15T12:32:08.986Z,0.00
2022-11-15T12:33:11.685Z,0.00
2022-11-15T12:34:14.532Z,0.00
2022-11-15T12:35:17.582Z,0.00
2022-11-15T12:36:20.440Z,0.00
2022-11-15T12:37:22.924Z,0.00
2022-11-15T12:38:25.770Z,0.00
2022-11-15T12:39:28.341Z,0.00
2022-11-15T12:40:31.159Z,0.00
2022-11-15T12:41:33.754Z,0.00
2022-11-15T12:42:36.569Z,0.00
2022-11-15T12:43:39.453Z,0.00
2022-11-15T12:44:42.227Z,0.00
2022-11-15T12:45:45.193Z,0.00
2022-11-15T12:46:47.966Z,0.00
2022-11-15T12:47:50.842Z,0.00
2022-11-15T12:48:53.451Z,0.00
2022-11-15T12:49:56.250Z,0.00
2022-11-15T12:50:58.862Z,0.00
2022-11-15T12:52:01.748Z,0.00
2022-11-15T12:53:04.613Z,0.00
2022-11-15T12:54:07.473Z,0.00
2022-11-15T12:55:10.062Z,0.00
2022-11-15T12:56:12.909Z,0.00
2022-11-15T12:57:15.699Z,0.00
2022-11-15T12:58:18.314Z,0.00
2022-11-15T12:59:20.823Z,0.00
2022-11-15T13:00:25.424Z,0.00
2022-11-15T13:01:27.373Z,0.00
2022-11-15T13:02:29.934Z,0.00
2022-11-15T13:03:32.556Z,0.00
2022-11-15T13:04:35.095Z,0.00
2022-11-15T13:05:37.714Z,0.00
2022-11-15T13:06:40.411Z,0.00
2022-11-15T13:07:43.029Z,0.00
2022-11-15T13:08:45.569Z,0.00
2022-11-15T13:09:48.186Z,0.00
2022-11-15T13:10:50.793Z,0.00
2022-11-15T13:11:53.506Z,0.00
2022-11-15T13:12:56.141Z,0.00
2022-11-15T13:13:58.752Z,0.00
2022-11-15T13:15:01.299Z,0.00
2022-11-15T13:16:03.846Z,0.00
2022-11-15T13:17:06.630Z,0.00
2022-11-15T13:18:09.138Z,0.00
2022-11-15T13:19:11.710Z,0.00
2022-11-15T13:20:14.178Z,0.00
2022-11-15T13:21:16.668Z,0.00
2022-11-15T13:22:19.792Z,0.00
2022-11-15T13:23:22.537Z,0.00
2022-11-15T13:24:25.258Z,0.00
2022-11-15T13:25:27.885Z,0.00
2022-11-15T13:26:30.537Z,0.00
2022-11-15T13:27:33.149Z,0.00
2022-11-15T13:28:35.877Z,0.00
2022-11-15T13:29:38.814Z,0.00
2022-11-15T13:30:41.598Z,0.00
2022-11-15T13:31:44.451Z,0.00
2022-11-15T13:32:47.487Z,0.00
2022-11-15T13:33:50.292Z,0.00
2022-11-15T13:34:53.472Z,0.00
2022-11-15T13:35:56.752Z,0.00
2022-11-15T13:36:59.626Z,0.00
2022-11-15T13:38:02.592Z,0.00
2022-11-15T13:39:05.522Z,0.00
2022-11-15T13:40:08.438Z,0.00
2022-11-15T13:41:11.142Z,0.00
2022-11-15T13:42:14.006Z,0.00
2022-11-15T13:43:16.863Z,0.00
2022-11-15T13:44:19.713Z,0.00
2022-11-15T13:45:22.533Z,0.00
2022-11-15T13:46:25.313Z,0.00
2022-11-15T13:47:28.091Z,0.00
2022-11-15T13:48:31.178Z,0.00
2022-11-15T13:49:33.951Z,0.00
2022-11-15T13:50:36.582Z,0.00
2022-11-15T13:51:39.518Z,0.00
2022-11-15T13:52:42.607Z,0.00
2022-11-15T13:53:45.787Z,0.00
2022-11-15T13:54:48.831Z,0.00
2022-11-15T13:55:51.746Z,0.00
2022-11-15T13:56:54.600Z,0.00
2022-11-15T13:57:57.377Z,0.00
2022-11-15T13:59:00.216Z,0.00
2022-11-15T14:00:03.095Z,0.00
2022-11-15T14:01:05.961Z,0.00
2022-11-15T14:02:08.857Z,0.00
2022-11-15T14:03:11.736Z,0.00
2022-11-15T14:04:14.681Z,0.00
2022-11-15T14:05:17.475Z,0.00
2022-11-15T14:06:20.564Z,0.00
2022-11-15T14:07:23.412Z,0.00
2022-11-15T14:08:26.274Z,0.00
2022-11-15T14:09:29.042Z,0.00
2022-11-15T14:10:31.657Z,0.00
2022-11-15T14:11:34.265Z,0.00
2022-11-15T14:12:36.826Z,0.00
2022-11-15T14:13:39.414Z,0.00
2022-11-15T14:14:42.100Z,0.00
2022-11-15T14:15:44.712Z,0.00
2022-11-15T14:16:47.305Z,0.00
2022-11-15T14:17:50.409Z,0.00
2022-11-15T14:18:53.179Z,0.00
2022-11-15T14:19:55.781Z,0.00
2022-11-15T14:20:58.328Z,0.00
2022-11-15T14:22:00.869Z,0.00
2022-11-15T14:23:03.438Z,0.00
2022-11-15T14:24:06.012Z,0.00
2022-11-15T14:25:08.790Z,0.00
2022-11-15T14:26:12.157Z,0.00
2022-11-15T14:27:15.050Z,0.00
2022-11-15T14:28:17.855Z,0.00
2022-11-15T14:29:20.593Z,0.00
2022-11-15T14:30:23.201Z,0.00
2022-11-15T14:31:25.739Z,0.00
2022-11-15T14:32:28.345Z,0.00
2022-11-15T14:33:30.961Z,0.00
2022-11-15T14:34:33.588Z,0.00
2022-11-15T14:35:36.395Z,0.00
2022-11-15T14:36:39.170Z,0.00
2022-11-15T14:37:41.886Z,0.00
2022-11-15T14:38:44.976Z,0.00
2022-11-15T14:39:47.781Z,0.00
2022-11-15T14:40:50.656Z,0.00
2022-11-15T14:41:53.512Z,0.00
2022-11-15T14:42:56.374Z,0.00
2022-11-15T14:43:59.329Z,0.00
2022-11-15T14:45:02.130Z,0.00
2022-11-15T14:46:05.118Z,0.00
2022-11-15T14:47:07.797Z,0.00
2022-11-15T14:48:10.516Z,0.00
2022-11-15T14:49:13.344Z,0.00
2022-11-15T14:50:15.910Z,0.00
2022-11-15T14:51:18.693Z,0.00
2022-11-15T14:52:21.307Z,0.00
2022-11-15T14:53:23.890Z,0.00
2022-11-15T14:54:26.530Z,0.00
2022-11-15T14:55:29.137Z,0.00
2022-11-15T14:56:31.976Z,0.00
2022-11-15T14:57:34.660Z,0.00
2022-11-15T14:58:37.267Z,0.00
2022-11-15T14:59:39.891Z,0.00
2022-11-15T15:00:42.594Z,0.00
2022-11-15T15:01:45.199Z,0.00
2022-11-15T15:02:47.818Z,0.00
2022-11-15T15:03:50.338Z,0.00
2022-11-15T15:04:52.959Z,0.00
2022-11-15T15:05:55.475Z,0.00
2022-11-15T15:06:58.144Z,0.00
2022-11-15T15:08:00.918Z,0.00
2022-11-15T15:09:03.627Z,0.00
2022-11-15T15:10:37.872Z,0.00
2022-11-15T15:11:10.075Z,0.00
2022-11-15T15:12:12.864Z,0.00
2022-11-15T15:13:15.693Z,0.00
2022-11-15T15:14:18.598Z,0.00
2022-11-15T15:15:21.508Z,0.00
2022-11-15T15:16:24.231Z,0.00
2022-11-15T15:17:26.853Z,0.00
2022-11-15T15:18:29.681Z,0.00
2022-11-15T15:19:32.411Z,0.00
2022-11-15T15:20:35.039Z,0.00
2022-11-15T15:21:37.782Z,0.00
2022-11-15T15:22:40.784Z,0.00
2022-11-15T15:23:43.595Z,0.00
2022-11-15T15:24:46.427Z,0.00
2022-11-15T15:25:49.382Z,0.00
2022-11-15T15:26:52.319Z,0.00
2022-11-15T15:27:55.417Z,0.00
2022-11-15T15:28:58.182Z,0.00
2022-11-15T15:30:00.977Z,0.00
2022-11-15T15:31:03.827Z,0.00
2022-11-15T15:32:06.697Z,0.00
2022-11-15T15:33:09.559Z,0.00
2022-11-15T15:34:16.693Z,0.00
2022-11-15T15:35:16.396Z,0.00
2022-11-15T15:36:19.285Z,0.00
2022-11-15T15:37:22.207Z,0.00
2022-11-15T15:38:25.233Z,0.00
2022-11-15T15:39:27.860Z,0.00
2022-11-15T15:40:30.489Z,0.00
2022-11-15T15:41:33.114Z,0.00
2022-11-15T15:42:35.653Z,0.00
2022-11-15T15:43:38.356Z,0.00
2022-11-15T15:44:41.232Z,0.00
2022-11-15T15:45:44.101Z,0.00
2022-11-15T15:46:46.876Z,0.00
2022-11-15T15:47:49.816Z,0.00
2022-11-15T15:48:52.782Z,0.00
2022-11-15T15:49:55.626Z,0.00
2022-11-15T15:50:58.478Z,0.00
2022-11-15T15:52:01.281Z,0.00
2022-11-15T15:53:04.137Z,0.00
2022-11-15T15:54:07.092Z,0.00
2022-11-15T15:55:09.856Z,0.00
2022-11-15T15:56:12.739Z,0.00
2022-11-15T15:57:15.537Z,0.00
2022-11-15T15:58:18.457Z,0.00
2022-11-15T15:59:21.336Z,0.00
2022-11-15T16:00:24.204Z,0.00
2022-11-15T16:01:26.823Z,0.00
2022-11-15T16:02:29.499Z,0.00
2022-11-15T16:03:32.121Z,0.00
2022-11-15T16:04:34.904Z,0.00
2022-11-15T16:05:37.522Z,0.00
2022-11-15T16:06:40.171Z,0.00
2022-11-15T16:07:42.820Z,0.00
2022-11-15T16:09:08.338Z,0.00
2022-11-15T16:09:49.417Z,0.00
2022-11-15T16:10:52.043Z,0.00
2022-11-15T16:11:54.551Z,0.00
2022-11-15T16:12:57.377Z,0.00
2022-11-15T16:14:00.188Z,0.00
2022-11-15T16:15:03.063Z,0.00
2022-11-15T16:16:05.938Z,0.00
2022-11-15T16:17:08.766Z,0.00
2022-11-15T16:18:11.377Z,0.00
2022-11-15T16:19:13.999Z,0.00
2022-11-15T16:20:16.847Z,0.00
2022-11-15T16:21:19.463Z,0.00
2022-11-15T16:22:22.076Z,0.00
2022-11-15T16:23:24.660Z,0.00
2022-11-15T16:24:27.296Z,0.00
2022-11-15T16:25:29.917Z,0.00
2022-11-15T16:26:32.518Z,0.00
2022-11-15T16:27:35.128Z,0.00
2022-11-15T16:28:37.987Z,0.00
2022-11-15T16:29:40.647Z,0.00
2022-11-15T16:30:43.295Z,0.00
2022-11-15T16:31:45.867Z,0.00
2022-11-15T16:32:48.622Z,0.00
2022-11-15T16:33:51.409Z,0.00
2022-11-15T16:34:53.911Z,0.00
2022-11-15T16:35:56.805Z,0.00
2022-11-15T16:36:59.520Z,0.00
2022-11-15T16:38:02.290Z,0.00
2022-11-15T16:39:05.224Z,0.00
2022-11-15T16:40:08.011Z,0.00
2022-11-15T16:41:10.677Z,0.00
2022-11-15T16:42:14.269Z,0.00
2022-11-15T16:43:17.061Z,0.00
2022-11-15T16:44:19.947Z,0.00
2022-11-15T16:45:23.211Z,0.00
2022-11-15T16:46:25.968Z,0.00
2022-11-15T16:47:28.531Z,0.00
2022-11-15T16:48:31.479Z,0.00
2022-11-15T16:49:34.348Z,0.00
2022-11-15T16:50:36.897Z,0.00
2022-11-15T16:51:39.529Z,0.00
2022-11-15T16:52:42.077Z,0.00
2022-11-15T16:53:45.016Z,0.00
2022-11-15T16:54:47.695Z,0.00
2022-11-15T16:55:50.274Z,0.00
2022-11-15T16:56:52.827Z,0.00
2022-11-15T16:57:55.447Z,0.00
2022-11-15T16:58:58.089Z,0.00
2022-11-15T17:00:00.646Z,0.00
2022-11-15T17:01:03.225Z,0.00
2022-11-15T17:02:05.876Z,0.00
2022-11-15T17:03:08.360Z,0.00
2022-11-15T17:04:10.823Z,0.00
2022-11-15T17:05:18.731Z,0.00
2022-11-15T17:06:17.067Z,0.00
2022-11-15T17:07:19.807Z,0.00
2022-11-15T17:08:22.358Z,0.00
2022-11-15T17:09:25.111Z,0.00
2022-11-15T17:10:27.797Z,0.00
2022-11-15T17:11:30.276Z,0.00
2022-11-15T17:12:32.871Z,0.00
2022-11-15T17:13:35.352Z,0.00
2022-11-15T17:14:37.973Z,0.00
2022-11-15T17:15:43.767Z,0.00
2022-11-15T17:16:46.468Z,0.00
2022-11-15T17:17:49.337Z,0.00
2022-11-15T17:18:52.145Z,0.00
2022-11-15T17:19:54.605Z,0.00
2022-11-15T17:20:57.377Z,0.00
2022-11-15T17:21:59.929Z,0.00
2022-11-15T17:23:02.788Z,0.00
2022-11-15T17:24:05.472Z,0.00
2022-11-15T17:25:08.181Z,0.00
2022-11-15T17:27:14.697Z,0.00
2022-11-15T17:28:17.646Z,0.00
2022-11-15T17:29:20.512Z,0.00
2022-11-15T17:30:23.307Z,0.00
2022-11-15T17:31:26.144Z,0.00
2022-11-15T17:32:28.864Z,0.00
2022-11-15T17:33:31.642Z,0.00
2022-11-15T17:34:34.201Z,0.00
2022-11-15T17:35:36.834Z,0.00
2022-11-15T17:36:39.378Z,0.00
2022-11-15T17:37:42.177Z,0.00
2022-11-15T17:38:45.279Z,0.00
2022-11-15T17:39:47.834Z,0.00
2022-11-15T17:40:50.694Z,0.00
2022-11-15T17:41:53.468Z,0.00
2022-11-15T17:42:56.331Z,0.00
2022-11-15T17:43:59.276Z,0.00
2022-11-15T17:45:06.560Z,0.00
2022-11-15T17:46:06.070Z,0.00
2022-11-15T17:47:08.934Z,0.00
2022-11-15T17:48:11.711Z,0.00
2022-11-15T17:49:14.736Z,0.00
2022-11-15T17:50:17.525Z,0.00
2022-11-15T17:51:20.128Z,0.00
2022-11-15T17:52:22.672Z,0.00
2022-11-15T17:53:25.242Z,0.00
2022-11-15T17:54:27.911Z,0.00
2022-11-15T17:55:30.450Z,0.00
2022-11-15T17:56:33.013Z,0.00
2022-11-15T17:57:35.629Z,0.00
2022-11-15T17:58:38.258Z,0.00
2022-11-15T17:59:40.787Z,0.00
2022-11-15T18:00:43.312Z,0.00
2022-11-15T18:01:46.072Z,0.00
2022-11-15T18:02:48.907Z,0.00
2022-11-15T18:03:51.776Z,0.00
2022-11-15T18:04:54.644Z,0.00
2022-11-15T18:05:57.440Z,0.00
2022-11-15T18:07:00.297Z,0.00
2022-11-15T18:08:03.085Z,0.00
2022-11-15T18:09:05.810Z,0.00
2022-11-15T18:10:08.929Z,0.00
2022-11-15T18:11:11.731Z,0.00
2022-11-15T18:12:14.330Z,0.00
2022-11-15T18:13:17.063Z,0.00
2022-11-15T18:14:19.935Z,0.00
2022-11-15T18:15:22.805Z,0.00
2022-11-15T18:16:25.663Z,0.00
2022-11-15T18:17:28.252Z,0.00
2022-11-15T18:18:31.380Z,0.00
2022-11-15T18:19:34.137Z,0.00
2022-11-15T18:20:36.764Z,0.00
2022-11-15T18:21:39.334Z,0.00
2022-11-15T18:22:42.136Z,0.00
2022-11-15T18:23:45.069Z,0.00
2022-11-15T18:24:47.942Z,0.00
2022-11-15T18:25:50.873Z,0.00
2022-11-15T18:26:53.635Z,0.00
2022-11-15T18:27:57.367Z,0.00
2022-11-15T18:29:00.202Z,0.00
2022-11-15T18:30:02.995Z,0.00
2022-11-15T18:31:05.893Z,0.00
2022-11-15T18:32:08.685Z,0.00
2022-11-15T18:33:11.468Z,0.00
2022-11-15T18:34:14.257Z,0.00
2022-11-15T18:35:17.054Z,0.00
2022-11-15T18:36:19.650Z,0.00
2022-11-15T18:37:22.202Z,0.00
2022-11-15T18:38:24.760Z,0.00
2022-11-15T18:39:27.293Z,0.00
2022-11-15T18:40:29.814Z,0.00
2022-11-15T18:41:32.421Z,0.00
2022-11-15T18:42:34.985Z,0.00
2022-11-15T18:43:37.543Z,0.00
2022-11-15T18:44:40.192Z,0.00
2022-11-15T18:45:42.764Z,0.00
2022-11-15T18:46:45.330Z,0.00
2022-11-15T18:47:47.892Z,0.00
2022-11-15T18:48:50.538Z,0.00
2022-11-15T18:49:53.107Z,0.00
2022-11-15T18:50:55.673Z,0.00
2022-11-15T18:51:58.234Z,0.00
2022-11-15T18:53:00.718Z,0.00
2022-11-15T18:54:03.191Z,0.00
2022-11-15T18:55:05.720Z,0.00
2022-11-15T18:56:08.263Z,0.00
2022-11-15T18:57:10.771Z,0.00
2022-11-15T18:58:13.396Z,0.00
2022-11-15T18:59:16.091Z,0.00
2022-11-15T19:00:18.760Z,0.00
2022-11-15T19:01:21.528Z,0.00
2022-11-15T19:02:24.268Z,0.00
2022-11-15T19:03:27.032Z,0.00
2022-11-15T19:04:29.736Z,0.00
2022-11-15T19:05:32.298Z,0.00
2022-11-15T19:06:34.813Z,0.00
2022-11-15T19:07:37.647Z,0.00
2022-11-15T19:08:40.292Z,0.00
2022-11-15T19:09:43.128Z,0.00
2022-11-15T19:10:45.969Z,0.00
2022-11-15T19:11:48.800Z,0.00
2022-11-15T19:12:51.794Z,0.00
2022-11-15T19:13:54.556Z,0.00
2022-11-15T19:14:57.377Z,0.00
2022-11-15T19:16:00.163Z,0.00
2022-11-15T19:17:03.007Z,0.00
2022-11-15T19:18:05.779Z,0.00
2022-11-15T19:19:08.724Z,0.00
2022-11-15T19:20:11.496Z,0.00
2022-11-15T19:21:16.013Z,0.00
2022-11-15T19:22:18.428Z,0.00
2022-11-15T19:23:21.447Z,0.00
2022-11-15T19:24:24.058Z,0.00
2022-11-15T19:25:26.792Z,0.00
2022-11-15T19:26:29.561Z,0.00
2022-11-15T19:27:36.889Z,0.00
2022-11-15T19:28:36.024Z,0.00
2022-11-15T19:29:38.584Z,0.00
2022-11-15T19:30:41.222Z,0.00
2022-11-15T19:31:44.024Z,0.00
2022-11-15T19:32:46.796Z,0.00
2022-11-15T19:33:49.739Z,0.00
2022-11-15T19:34:52.534Z,0.00
2022-11-15T19:35:55.388Z,0.00
2022-11-15T19:36:58.180Z,0.00
2022-11-15T19:38:00.951Z,0.00
2022-11-15T19:39:03.633Z,0.00
2022-11-15T19:40:06.184Z,0.00
2022-11-15T19:41:08.836Z,0.00
2022-11-15T19:42:11.428Z,0.00
2022-11-15T19:43:14.018Z,0.00
2022-11-15T19:44:16.697Z,0.00
2022-11-15T19:45:19.321Z,0.00
2022-11-15T19:46:21.977Z,0.00
2022-11-15T19:47:24.457Z,0.00
2022-11-15T19:48:27.162Z,0.00
2022-11-15T19:49:29.675Z,0.00
2022-11-15T19:50:32.172Z,0.00
2022-11-15T19:51:34.776Z,0.00
2022-11-15T19:52:37.348Z,0.00
2022-11-15T19:53:40.347Z,0.00
2022-11-15T19:54:43.809Z,0.00
2022-11-15T19:55:46.551Z,0.00
2022-11-15T19:56:49.427Z,0.00
2022-11-15T19:57:52.240Z,0.00
2022-11-15T19:58:55.140Z,0.00
2022-11-15T19:59:59.936Z,0.00
2022-11-15T20:01:02.290Z,0.00
2022-11-15T20:02:05.188Z,0.00
2022-11-15T20:03:08.021Z,0.00
2022-11-15T20:04:10.864Z,0.00
2022-11-15T20:05:18.234Z,0.00
2022-11-15T20:06:17.868Z,0.00
2022-11-15T20:07:20.654Z,0.00
2022-11-15T20:08:23.446Z,0.00
2022-11-15T20:09:26.211Z,0.00
2022-11-15T20:10:29.259Z,0.00
2022-11-15T20:11:31.830Z,0.00
2022-11-15T20:12:34.434Z,0.00
2022-11-15T20:13:37.032Z,0.00
2022-11-15T20:14:39.633Z,0.00
2022-11-15T20:15:42.727Z,0.00
2022-11-15T20:16:47.908Z,0.00
2022-11-15T20:17:49.534Z,0.00
2022-11-15T20:18:52.367Z,0.00
2022-11-15T20:19:55.197Z,0.00
2022-11-15T20:20:57.975Z,0.00
2022-11-15T20:22:00.863Z,0.00
2022-11-15T20:23:03.756Z,0.00
2022-11-15T20:24:06.594Z,0.00
2022-11-15T20:25:09.440Z,0.00
2022-11-15T20:26:12.682Z,0.00
2022-11-15T20:27:15.447Z,0.00
2022-11-15T20:28:18.203Z,0.00
2022-11-15T20:29:21.103Z,0.00
2022-11-15T20:30:23.859Z,0.00
2022-11-15T20:31:26.696Z,0.00
2022-11-15T20:32:29.541Z,0.00
2022-11-15T20:33:32.022Z,0.00
2022-11-15T20:34:34.573Z,0.00
2022-11-15T20:35:37.210Z,0.00
2022-11-15T20:36:39.853Z,0.00
2022-11-15T20:37:42.415Z,0.00
2022-11-15T20:38:45.310Z,0.00
2022-11-15T20:39:48.909Z,0.00
2022-11-15T20:40:53.611Z,0.00
2022-11-15T20:41:56.723Z,0.00
2022-11-15T20:43:00.249Z,0.00
2022-11-15T20:44:04.071Z,0.00
2022-11-15T20:45:07.729Z,0.00
2022-11-15T20:46:10.290Z,0.00
2022-11-15T20:47:12.934Z,0.00
2022-11-15T20:48:15.492Z,0.00
2022-11-15T20:49:18.074Z,0.00
2022-11-15T20:50:40.996Z,0.00
2022-11-15T20:51:24.610Z,0.00
2022-11-15T20:52:27.280Z,0.00
2022-11-15T20:53:31.597Z,0.00
2022-11-15T20:54:33.589Z,0.00
2022-11-15T20:55:36.166Z,0.00
2022-11-15T20:56:38.712Z,0.00
2022-11-15T20:57:41.271Z,0.00
2022-11-15T20:58:43.749Z,0.00
2022-11-15T20:59:46.320Z,0.00
2022-11-15T21:00:49.022Z,0.00
2022-11-15T21:01:51.764Z,0.00
2022-11-15T21:02:54.446Z,0.33
2022-11-15T21:03:57.051Z,1.00
2022-11-15T21:04:59.576Z,0.67
2022-11-15T21:06:02.133Z,0.00
2022-11-15T21:07:04.803Z,0.33
2022-11-15T21:08:08.030Z,0.67
2022-11-15T21:09:10.954Z,0.67
2022-11-15T21:10:13.785Z,2.14
2022-11-15T21:11:16.574Z,0.67
2022-11-15T21:12:19.389Z,0.00
2022-11-15T21:13:21.986Z,0.00
2022-11-15T21:14:24.772Z,0.00
2022-11-15T21:15:27.571Z,0.00
2022-11-15T21:16:30.361Z,0.00
2022-11-15T21:17:32.928Z,0.00
2022-11-15T21:18:35.941Z,0.00
2022-11-15T21:19:38.672Z,0.00
2022-11-15T21:20:41.185Z,0.00
2022-11-15T21:21:43.915Z,0.00
2022-11-15T21:22:46.656Z,0.00
2022-11-15T21:23:49.630Z,0.00
2022-11-15T21:24:52.467Z,0.00
2022-11-15T21:25:55.574Z,0.00
2022-11-15T21:26:58.396Z,0.00
2022-11-15T21:28:01.232Z,0.00
2022-11-15T21:29:04.311Z,0.00
2022-11-15T21:30:07.087Z,0.00
2022-11-15T21:31:10.065Z,0.00
2022-11-15T21:32:12.912Z,0.00
2022-11-15T21:33:15.724Z,0.00
2022-11-15T21:34:18.372Z,0.00
2022-11-15T21:35:21.407Z,0.00
2022-11-15T21:36:23.997Z,0.00
2022-11-15T21:37:26.583Z,0.00
2022-11-15T21:38:29.204Z,0.33
2022-11-15T21:39:31.913Z,0.67
2022-11-15T21:40:34.543Z,0.00
2022-11-15T21:41:37.234Z,0.00
2022-11-15T21:42:39.764Z,0.00
2022-11-15T21:43:42.342Z,0.00
2022-11-15T21:44:45.250Z,0.00
2022-11-15T21:45:47.901Z,0.00
2022-11-15T21:46:50.475Z,0.00